sensor_id;sensor_type;location;lat;lon;timestamp;P1;durP1;ratioP1;P2;durP2;ratioP2
69779;SDS011;57052;55.602;38.096;2023-04-30T00:01:55;25.17;;;13.15;;
69779;SDS011;57052;55.602;38.096;2023-04-30T00:04:20;27.85;;;14.32;;
69779;SDS011;57052;55.602;38.096;2023-04-30T00:06:46;27.23;;;15.02;;
69779;SDS011;57052;55.602;38.096;2023-04-30T00:09:11;26.83;;;14.85;;
69779;SDS011;57052;55.602;38.096;2023-04-30T00:11:37;27.55;;;15.43;;
69779;SDS011;57052;55.602;38.096;2023-04-30T00:14:03;26.27;;;14.63;;
69779;SDS011;57052;55.602;38.096;2023-04-30T00:16:29;25.45;;;14.85;;
69779;SDS011;57052;55.602;38.096;2023-04-30T00:18:54;26.13;;;14.60;;
69779;SDS011;57052;55.602;38.096;2023-04-30T00:21:20;26.70;;;14.80;;
69779;SDS011;57052;55.602;38.096;2023-04-30T00:23:46;30.38;;;15.20;;
69779;SDS011;57052;55.602;38.096;2023-04-30T00:26:11;28.23;;;15.15;;
69779;SDS011;57052;55.602;38.096;2023-04-30T00:28:37;31.77;;;15.55;;
69779;SDS011;57052;55.602;38.096;2023-04-30T00:31:02;28.55;;;14.95;;
69779;SDS011;57052;55.602;38.096;2023-04-30T00:33:31;27.65;;;14.70;;
69779;SDS011;57052;55.602;38.096;2023-04-30T00:35:57;27.38;;;14.38;;
69779;SDS011;57052;55.602;38.096;2023-04-30T00:38:22;24.98;;;14.15;;
69779;SDS011;57052;55.602;38.096;2023-04-30T00:40:48;30.25;;;14.95;;
69779;SDS011;57052;55.602;38.096;2023-04-30T00:43:14;28.15;;;15.00;;
69779;SDS011;57052;55.602;38.096;2023-04-30T00:45:39;30.85;;;15.35;;
69779;SDS011;57052;55.602;38.096;2023-04-30T00:48:05;31.25;;;15.35;;
69779;SDS011;57052;55.602;38.096;2023-04-30T00:50:31;27.92;;;15.18;;
69779;SDS011;57052;55.602;38.096;2023-04-30T00:53:00;26.02;;;14.68;;
69779;SDS011;57052;55.602;38.096;2023-04-30T00:55:26;29.17;;;15.00;;
69779;SDS011;57052;55.602;38.096;2023-04-30T00:57:52;27.88;;;14.48;;
69779;SDS011;57052;55.602;38.096;2023-04-30T01:00:18;29.85;;;15.60;;
69779;SDS011;57052;55.602;38.096;2023-04-30T01:02:44;26.70;;;14.88;;
69779;SDS011;57052;55.602;38.096;2023-04-30T01:05:09;27.70;;;14.27;;
69779;SDS011;57052;55.602;38.096;2023-04-30T01:07:35;22.83;;;13.70;;
69779;SDS011;57052;55.602;38.096;2023-04-30T01:10:11;24.58;;;14.07;;
69779;SDS011;57052;55.602;38.096;2023-04-30T01:12:42;23.73;;;13.43;;
69779;SDS011;57052;55.602;38.096;2023-04-30T01:17:54;30.50;;;14.68;;
69779;SDS011;57052;55.602;38.096;2023-04-30T01:20:25;24.52;;;14.30;;
69779;SDS011;57052;55.602;38.096;2023-04-30T01:23:01;25.92;;;13.70;;
69779;SDS011;57052;55.602;38.096;2023-04-30T01:28:05;26.77;;;14.45;;
69779;SDS011;57052;55.602;38.096;2023-04-30T01:30:34;27.95;;;14.68;;
69779;SDS011;57052;55.602;38.096;2023-04-30T01:33:01;28.20;;;13.90;;
69779;SDS011;57052;55.602;38.096;2023-04-30T01:35:40;25.90;;;14.32;;
69779;SDS011;57052;55.602;38.096;2023-04-30T01:52:35;26.63;;;14.18;;
69779;SDS011;57052;55.602;38.096;2023-04-30T01:58:00;26.58;;;13.48;;
69779;SDS011;57052;55.602;38.096;2023-04-30T02:00:29;25.13;;;13.93;;
69779;SDS011;57052;55.602;38.096;2023-04-30T02:02:55;23.70;;;13.63;;
69779;SDS011;57052;55.602;38.096;2023-04-30T02:05:21;30.00;;;14.07;;
69779;SDS011;57052;55.602;38.096;2023-04-30T02:07:48;29.33;;;14.52;;
69779;SDS011;57052;55.602;38.096;2023-04-30T02:10:16;25.13;;;14.13;;
69779;SDS011;57052;55.602;38.096;2023-04-30T02:12:44;30.73;;;13.60;;
69779;SDS011;57052;55.602;38.096;2023-04-30T02:15:11;30.42;;;14.23;;
69779;SDS011;57052;55.602;38.096;2023-04-30T02:17:36;23.45;;;13.32;;
69779;SDS011;57052;55.602;38.096;2023-04-30T02:20:02;27.23;;;13.82;;
69779;SDS011;57052;55.602;38.096;2023-04-30T02:22:30;27.98;;;13.75;;
69779;SDS011;57052;55.602;38.096;2023-04-30T02:24:56;24.17;;;12.93;;
69779;SDS011;57052;55.602;38.096;2023-04-30T02:27:22;21.48;;;12.52;;
69779;SDS011;57052;55.602;38.096;2023-04-30T02:29:50;23.25;;;12.00;;
69779;SDS011;57052;55.602;38.096;2023-04-30T02:32:16;25.50;;;13.68;;
69779;SDS011;57052;55.602;38.096;2023-04-30T02:34:41;24.88;;;12.43;;
69779;SDS011;57052;55.602;38.096;2023-04-30T02:37:07;26.33;;;12.00;;
69779;SDS011;57052;55.602;38.096;2023-04-30T02:39:33;25.45;;;12.88;;
69779;SDS011;57052;55.602;38.096;2023-04-30T02:41:59;28.08;;;12.32;;
69779;SDS011;57052;55.602;38.096;2023-04-30T02:44:25;25.35;;;12.50;;
69779;SDS011;57052;55.602;38.096;2023-04-30T02:46:51;24.70;;;11.88;;
69779;SDS011;57052;55.602;38.096;2023-04-30T02:49:16;25.30;;;11.77;;
69779;SDS011;57052;55.602;38.096;2023-04-30T02:51:42;27.27;;;11.95;;
69779;SDS011;57052;55.602;38.096;2023-04-30T02:54:08;24.92;;;11.95;;
69779;SDS011;57052;55.602;38.096;2023-04-30T02:56:34;22.90;;;11.82;;
69779;SDS011;57052;55.602;38.096;2023-04-30T02:59:00;24.20;;;11.82;;
69779;SDS011;57052;55.602;38.096;2023-04-30T03:01:26;24.77;;;11.45;;
69779;SDS011;57052;55.602;38.096;2023-04-30T03:03:51;22.20;;;11.40;;
69779;SDS011;57052;55.602;38.096;2023-04-30T03:06:17;22.02;;;11.68;;
69779;SDS011;57052;55.602;38.096;2023-04-30T03:08:43;20.02;;;11.40;;
69779;SDS011;57052;55.602;38.096;2023-04-30T03:11:09;22.88;;;11.27;;
69779;SDS011;57052;55.602;38.096;2023-04-30T03:13:34;21.02;;;10.43;;
69779;SDS011;57052;55.602;38.096;2023-04-30T03:16:01;19.45;;;10.60;;
69779;SDS011;57052;55.602;38.096;2023-04-30T03:18:31;18.48;;;10.15;;
69779;SDS011;57052;55.602;38.096;2023-04-30T03:20:57;17.55;;;9.80;;
69779;SDS011;57052;55.602;38.096;2023-04-30T03:23:23;16.73;;;9.57;;
69779;SDS011;57052;55.602;38.096;2023-04-30T03:25:51;16.75;;;9.43;;
69779;SDS011;57052;55.602;38.096;2023-04-30T03:28:17;17.92;;;8.85;;
69779;SDS011;57052;55.602;38.096;2023-04-30T03:30:43;18.88;;;9.77;;
69779;SDS011;57052;55.602;38.096;2023-04-30T03:33:08;15.80;;;8.70;;
69779;SDS011;57052;55.602;38.096;2023-04-30T03:35:34;19.50;;;9.25;;
69779;SDS011;57052;55.602;38.096;2023-04-30T03:38:00;16.17;;;8.73;;
69779;SDS011;57052;55.602;38.096;2023-04-30T03:40:26;15.80;;;8.55;;
69779;SDS011;57052;55.602;38.096;2023-04-30T03:42:52;17.05;;;8.48;;
69779;SDS011;57052;55.602;38.096;2023-04-30T03:45:18;13.45;;;7.90;;
69779;SDS011;57052;55.602;38.096;2023-04-30T03:47:44;16.13;;;7.78;;
69779;SDS011;57052;55.602;38.096;2023-04-30T03:50:10;16.17;;;7.95;;
69779;SDS011;57052;55.602;38.096;2023-04-30T03:52:36;13.20;;;7.07;;
69779;SDS011;57052;55.602;38.096;2023-04-30T03:55:02;15.32;;;7.55;;
69779;SDS011;57052;55.602;38.096;2023-04-30T03:57:29;12.20;;;6.85;;
69779;SDS011;57052;55.602;38.096;2023-04-30T03:59:55;12.35;;;7.30;;
69779;SDS011;57052;55.602;38.096;2023-04-30T04:02:20;12.38;;;6.60;;
69779;SDS011;57052;55.602;38.096;2023-04-30T04:04:46;11.77;;;6.65;;
69779;SDS011;57052;55.602;38.096;2023-04-30T04:07:12;11.68;;;5.47;;
69779;SDS011;57052;55.602;38.096;2023-04-30T04:09:39;13.20;;;6.28;;
69779;SDS011;57052;55.602;38.096;2023-04-30T04:12:05;11.95;;;6.35;;
69779;SDS011;57052;55.602;38.096;2023-04-30T04:14:30;11.00;;;6.30;;
69779;SDS011;57052;55.602;38.096;2023-04-30T04:16:56;11.82;;;6.20;;
69779;SDS011;57052;55.602;38.096;2023-04-30T04:19:24;9.90;;;6.00;;
69779;SDS011;57052;55.602;38.096;2023-04-30T04:21:50;10.43;;;6.10;;
69779;SDS011;57052;55.602;38.096;2023-04-30T04:24:16;11.95;;;6.40;;
69779;SDS011;57052;55.602;38.096;2023-04-30T04:26:41;10.77;;;5.72;;
69779;SDS011;57052;55.602;38.096;2023-04-30T04:29:07;11.52;;;5.93;;
69779;SDS011;57052;55.602;38.096;2023-04-30T04:31:33;9.57;;;5.88;;
69779;SDS011;57052;55.602;38.096;2023-04-30T04:34:00;10.00;;;5.38;;
69779;SDS011;57052;55.602;38.096;2023-04-30T04:36:27;11.23;;;5.22;;
69779;SDS011;57052;55.602;38.096;2023-04-30T04:38:55;12.82;;;6.97;;
69779;SDS011;57052;55.602;38.096;2023-04-30T04:43:53;10.98;;;5.55;;
69779;SDS011;57052;55.602;38.096;2023-04-30T04:46:19;10.07;;;5.50;;
69779;SDS011;57052;55.602;38.096;2023-04-30T04:48:45;9.55;;;5.13;;
69779;SDS011;57052;55.602;38.096;2023-04-30T04:51:11;8.55;;;4.75;;
69779;SDS011;57052;55.602;38.096;2023-04-30T04:53:37;12.23;;;5.40;;
69779;SDS011;57052;55.602;38.096;2023-04-30T04:56:03;8.10;;;4.55;;
69779;SDS011;57052;55.602;38.096;2023-04-30T04:58:29;16.67;;;5.15;;
69779;SDS011;57052;55.602;38.096;2023-04-30T05:00:54;9.35;;;4.45;;
69779;SDS011;57052;55.602;38.096;2023-04-30T05:03:21;9.35;;;4.82;;
69779;SDS011;57052;55.602;38.096;2023-04-30T05:05:47;8.45;;;4.60;;
69779;SDS011;57052;55.602;38.096;2023-04-30T05:08:12;10.30;;;4.50;;
69779;SDS011;57052;55.602;38.096;2023-04-30T05:10:38;6.72;;;3.88;;
69779;SDS011;57052;55.602;38.096;2023-04-30T05:13:04;7.97;;;3.92;;
69779;SDS011;57052;55.602;38.096;2023-04-30T05:15:29;9.45;;;3.88;;
69779;SDS011;57052;55.602;38.096;2023-04-30T05:17:55;7.35;;;3.70;;
69779;SDS011;57052;55.602;38.096;2023-04-30T05:20:21;7.82;;;3.78;;
69779;SDS011;57052;55.602;38.096;2023-04-30T05:22:46;6.20;;;3.50;;
69779;SDS011;57052;55.602;38.096;2023-04-30T05:25:12;5.43;;;3.00;;
69779;SDS011;57052;55.602;38.096;2023-04-30T05:27:38;4.70;;;2.95;;
69779;SDS011;57052;55.602;38.096;2023-04-30T05:30:03;5.55;;;2.72;;
69779;SDS011;57052;55.602;38.096;2023-04-30T05:32:31;6.55;;;3.03;;
69779;SDS011;57052;55.602;38.096;2023-04-30T05:34:57;10.02;;;3.10;;
69779;SDS011;57052;55.602;38.096;2023-04-30T05:37:22;6.18;;;2.60;;
69779;SDS011;57052;55.602;38.096;2023-04-30T05:39:48;4.13;;;2.60;;
69779;SDS011;57052;55.602;38.096;2023-04-30T05:42:14;6.53;;;2.78;;
69779;SDS011;57052;55.602;38.096;2023-04-30T05:44:40;4.72;;;2.50;;
69779;SDS011;57052;55.602;38.096;2023-04-30T05:47:06;3.75;;;2.35;;
69779;SDS011;57052;55.602;38.096;2023-04-30T05:49:31;3.78;;;2.30;;
69779;SDS011;57052;55.602;38.096;2023-04-30T05:51:57;3.83;;;2.30;;
69779;SDS011;57052;55.602;38.096;2023-04-30T05:54:23;4.03;;;2.38;;
69779;SDS011;57052;55.602;38.096;2023-04-30T05:56:48;4.82;;;2.22;;
69779;SDS011;57052;55.602;38.096;2023-04-30T05:59:14;3.72;;;2.10;;
69779;SDS011;57052;55.602;38.096;2023-04-30T06:01:40;7.65;;;2.67;;
69779;SDS011;57052;55.602;38.096;2023-04-30T06:04:05;3.90;;;2.38;;
69779;SDS011;57052;55.602;38.096;2023-04-30T06:06:33;4.72;;;1.90;;
69779;SDS011;57052;55.602;38.096;2023-04-30T06:08:59;4.20;;;2.10;;
69779;SDS011;57052;55.602;38.096;2023-04-30T06:11:24;2.72;;;1.90;;
69779;SDS011;57052;55.602;38.096;2023-04-30T06:13:50;3.42;;;1.90;;
69779;SDS011;57052;55.602;38.096;2023-04-30T06:16:16;3.25;;;1.90;;
69779;SDS011;57052;55.602;38.096;2023-04-30T06:18:42;3.75;;;1.83;;
69779;SDS011;57052;55.602;38.096;2023-04-30T06:21:08;4.30;;;2.00;;
69779;SDS011;57052;55.602;38.096;2023-04-30T06:23:34;3.13;;;1.70;;
69779;SDS011;57052;55.602;38.096;2023-04-30T06:25:59;5.80;;;2.10;;
69779;SDS011;57052;55.602;38.096;2023-04-30T06:28:25;3.15;;;1.80;;
69779;SDS011;57052;55.602;38.096;2023-04-30T06:30:51;2.58;;;1.70;;
69779;SDS011;57052;55.602;38.096;2023-04-30T06:33:18;3.38;;;1.70;;
69779;SDS011;57052;55.602;38.096;2023-04-30T06:35:44;3.70;;;1.33;;
69779;SDS011;57052;55.602;38.096;2023-04-30T06:38:09;2.92;;;1.70;;
69779;SDS011;57052;55.602;38.096;2023-04-30T06:40:35;3.78;;;1.65;;
69779;SDS011;57052;55.602;38.096;2023-04-30T06:43:01;2.72;;;1.40;;
69779;SDS011;57052;55.602;38.096;2023-04-30T06:45:26;2.33;;;1.40;;
69779;SDS011;57052;55.602;38.096;2023-04-30T06:47:53;3.72;;;1.70;;
69779;SDS011;57052;55.602;38.096;2023-04-30T06:50:19;2.28;;;1.38;;
69779;SDS011;57052;55.602;38.096;2023-04-30T06:52:46;4.20;;;1.40;;
69779;SDS011;57052;55.602;38.096;2023-04-30T06:55:11;3.63;;;1.40;;
69779;SDS011;57052;55.602;38.096;2023-04-30T06:57:37;2.55;;;1.50;;
69779;SDS011;57052;55.602;38.096;2023-04-30T07:00:07;2.88;;;1.50;;
69779;SDS011;57052;55.602;38.096;2023-04-30T07:02:33;2.42;;;1.40;;
69779;SDS011;57052;55.602;38.096;2023-04-30T07:05:00;4.72;;;1.77;;
69779;SDS011;57052;55.602;38.096;2023-04-30T07:07:25;3.92;;;1.77;;
69779;SDS011;57052;55.602;38.096;2023-04-30T07:09:52;2.40;;;1.23;;
69779;SDS011;57052;55.602;38.096;2023-04-30T07:12:18;2.63;;;1.58;;
69779;SDS011;57052;55.602;38.096;2023-04-30T07:14:44;2.72;;;1.38;;
69779;SDS011;57052;55.602;38.096;2023-04-30T07:17:10;3.03;;;1.30;;
69779;SDS011;57052;55.602;38.096;2023-04-30T07:19:35;4.78;;;1.45;;
69779;SDS011;57052;55.602;38.096;2023-04-30T07:22:01;2.28;;;1.48;;
69779;SDS011;57052;55.602;38.096;2023-04-30T07:24:27;2.38;;;1.30;;
69779;SDS011;57052;55.602;38.096;2023-04-30T07:26:53;4.45;;;1.70;;
69779;SDS011;57052;55.602;38.096;2023-04-30T07:29:18;5.93;;;1.75;;
69779;SDS011;57052;55.602;38.096;2023-04-30T07:31:44;2.50;;;1.48;;
69779;SDS011;57052;55.602;38.096;2023-04-30T07:34:10;4.30;;;2.28;;
69779;SDS011;57052;55.602;38.096;2023-04-30T07:36:36;3.78;;;1.90;;
69779;SDS011;57052;55.602;38.096;2023-04-30T07:39:03;2.70;;;1.40;;
69779;SDS011;57052;55.602;38.096;2023-04-30T07:41:29;2.92;;;1.30;;
69779;SDS011;57052;55.602;38.096;2023-04-30T07:43:55;5.88;;;1.70;;
69779;SDS011;57052;55.602;38.096;2023-04-30T07:46:22;3.30;;;1.30;;
69779;SDS011;57052;55.602;38.096;2023-04-30T07:48:49;3.42;;;1.35;;
69779;SDS011;57052;55.602;38.096;2023-04-30T07:51:15;3.35;;;1.80;;
69779;SDS011;57052;55.602;38.096;2023-04-30T07:53:41;5.50;;;1.38;;
69779;SDS011;57052;55.602;38.096;2023-04-30T07:56:06;4.35;;;1.48;;
69779;SDS011;57052;55.602;38.096;2023-04-30T07:58:32;1.92;;;1.20;;
69779;SDS011;57052;55.602;38.096;2023-04-30T08:00:58;2.50;;;1.40;;
69779;SDS011;57052;55.602;38.096;2023-04-30T08:03:24;3.83;;;1.50;;
69779;SDS011;57052;55.602;38.096;2023-04-30T08:05:51;3.08;;;1.60;;
69779;SDS011;57052;55.602;38.096;2023-04-30T08:08:17;4.07;;;1.60;;
69779;SDS011;57052;55.602;38.096;2023-04-30T08:10:42;1.98;;;1.13;;
69779;SDS011;57052;55.602;38.096;2023-04-30T08:13:08;3.05;;;1.45;;
69779;SDS011;57052;55.602;38.096;2023-04-30T08:15:34;3.30;;;1.60;;
69779;SDS011;57052;55.602;38.096;2023-04-30T08:18:01;2.53;;;1.83;;
69779;SDS011;57052;55.602;38.096;2023-04-30T08:20:27;3.08;;;1.40;;
69779;SDS011;57052;55.602;38.096;2023-04-30T08:22:52;2.58;;;1.40;;
69779;SDS011;57052;55.602;38.096;2023-04-30T08:25:18;3.47;;;1.30;;
69779;SDS011;57052;55.602;38.096;2023-04-30T08:27:44;1.67;;;1.08;;
69779;SDS011;57052;55.602;38.096;2023-04-30T08:30:10;3.60;;;1.50;;
69779;SDS011;57052;55.602;38.096;2023-04-30T08:32:36;5.55;;;1.40;;
69779;SDS011;57052;55.602;38.096;2023-04-30T08:35:05;4.50;;;1.70;;
69779;SDS011;57052;55.602;38.096;2023-04-30T08:37:32;5.25;;;1.70;;
69779;SDS011;57052;55.602;38.096;2023-04-30T08:39:58;6.38;;;1.40;;
69779;SDS011;57052;55.602;38.096;2023-04-30T08:42:25;3.15;;;1.38;;
69779;SDS011;57052;55.602;38.096;2023-04-30T08:44:57;4.47;;;1.50;;
69779;SDS011;57052;55.602;38.096;2023-04-30T08:47:25;2.67;;;1.50;;
69779;SDS011;57052;55.602;38.096;2023-04-30T08:49:51;3.63;;;1.30;;
69779;SDS011;57052;55.602;38.096;2023-04-30T08:52:17;3.53;;;1.70;;
69779;SDS011;57052;55.602;38.096;2023-04-30T08:54:43;3.25;;;1.50;;
69779;SDS011;57052;55.602;38.096;2023-04-30T08:57:11;2.83;;;1.50;;
69779;SDS011;57052;55.602;38.096;2023-04-30T08:59:37;4.28;;;1.77;;
69779;SDS011;57052;55.602;38.096;2023-04-30T09:02:03;3.50;;;1.42;;
69779;SDS011;57052;55.602;38.096;2023-04-30T09:04:30;4.57;;;1.60;;
69779;SDS011;57052;55.602;38.096;2023-04-30T09:06:56;4.18;;;1.50;;
69779;SDS011;57052;55.602;38.096;2023-04-30T09:09:28;4.55;;;1.75;;
69779;SDS011;57052;55.602;38.096;2023-04-30T09:12:12;3.65;;;1.45;;
69779;SDS011;57052;55.602;38.096;2023-04-30T09:17:24;3.03;;;1.83;;
69779;SDS011;57052;55.602;38.096;2023-04-30T09:19:50;4.50;;;1.63;;
69779;SDS011;57052;55.602;38.096;2023-04-30T09:22:23;4.65;;;1.50;;
69779;SDS011;57052;55.602;38.096;2023-04-30T09:24:49;4.43;;;1.77;;
69779;SDS011;57052;55.602;38.096;2023-04-30T09:27:19;2.85;;;1.50;;
69779;SDS011;57052;55.602;38.096;2023-04-30T09:29:45;4.95;;;1.83;;
69779;SDS011;57052;55.602;38.096;2023-04-30T09:32:12;4.32;;;1.92;;
69779;SDS011;57052;55.602;38.096;2023-04-30T09:34:38;3.50;;;1.60;;
69779;SDS011;57052;55.602;38.096;2023-04-30T09:37:04;2.60;;;1.55;;
69779;SDS011;57052;55.602;38.096;2023-04-30T09:39:30;2.92;;;1.55;;
69779;SDS011;57052;55.602;38.096;2023-04-30T09:42:08;4.80;;;1.73;;
69779;SDS011;57052;55.602;38.096;2023-04-30T09:44:36;4.78;;;1.70;;
69779;SDS011;57052;55.602;38.096;2023-04-30T09:47:03;3.85;;;1.60;;
69779;SDS011;57052;55.602;38.096;2023-04-30T09:49:29;2.75;;;1.60;;
69779;SDS011;57052;55.602;38.096;2023-04-30T09:54:24;4.15;;;1.77;;
69779;SDS011;57052;55.602;38.096;2023-04-30T09:56:55;2.97;;;1.60;;
69779;SDS011;57052;55.602;38.096;2023-04-30T09:59:29;3.17;;;1.50;;
69779;SDS011;57052;55.602;38.096;2023-04-30T10:02:00;6.68;;;2.08;;
69779;SDS011;57052;55.602;38.096;2023-04-30T10:04:29;5.50;;;1.73;;
69779;SDS011;57052;55.602;38.096;2023-04-30T10:06:57;5.15;;;1.77;;
69779;SDS011;57052;55.602;38.096;2023-04-30T10:09:27;4.90;;;1.70;;
69779;SDS011;57052;55.602;38.096;2023-04-30T10:11:56;2.88;;;1.63;;
69779;SDS011;57052;55.602;38.096;2023-04-30T10:14:22;3.50;;;1.98;;
69779;SDS011;57052;55.602;38.096;2023-04-30T10:17:00;4.43;;;1.92;;
69779;SDS011;57052;55.602;38.096;2023-04-30T10:19:30;3.60;;;1.80;;
69779;SDS011;57052;55.602;38.096;2023-04-30T10:21:59;5.25;;;1.77;;
69779;SDS011;57052;55.602;38.096;2023-04-30T10:24:26;2.88;;;1.80;;
69779;SDS011;57052;55.602;38.096;2023-04-30T10:26:52;7.35;;;1.70;;
69779;SDS011;57052;55.602;38.096;2023-04-30T10:29:17;3.03;;;1.77;;
69779;SDS011;57052;55.602;38.096;2023-04-30T10:31:47;4.18;;;1.60;;
69779;SDS011;57052;55.602;38.096;2023-04-30T10:37:15;3.42;;;1.60;;
69779;SDS011;57052;55.602;38.096;2023-04-30T10:40:03;4.85;;;1.65;;
69779;SDS011;57052;55.602;38.096;2023-04-30T10:42:30;4.70;;;1.75;;
69779;SDS011;57052;55.602;38.096;2023-04-30T10:44:58;3.60;;;1.80;;
69779;SDS011;57052;55.602;38.096;2023-04-30T10:47:30;4.63;;;1.80;;
69779;SDS011;57052;55.602;38.096;2023-04-30T10:50:02;4.32;;;1.85;;
69779;SDS011;57052;55.602;38.096;2023-04-30T10:52:30;3.67;;;1.80;;
69779;SDS011;57052;55.602;38.096;2023-04-30T10:54:55;8.93;;;4.35;;
69779;SDS011;57052;55.602;38.096;2023-04-30T10:57:21;5.13;;;2.42;;
69779;SDS011;57052;55.602;38.096;2023-04-30T10:59:51;4.88;;;2.45;;
69779;SDS011;57052;55.602;38.096;2023-04-30T11:02:17;3.40;;;2.13;;
69779;SDS011;57052;55.602;38.096;2023-04-30T11:07:31;4.22;;;1.70;;
69779;SDS011;57052;55.602;38.096;2023-04-30T11:09:57;2.67;;;1.55;;
69779;SDS011;57052;55.602;38.096;2023-04-30T11:12:25;4.55;;;2.00;;
69779;SDS011;57052;55.602;38.096;2023-04-30T11:15:04;4.90;;;1.98;;
69779;SDS011;57052;55.602;38.096;2023-04-30T11:17:32;3.70;;;1.83;;
69779;SDS011;57052;55.602;38.096;2023-04-30T11:19:58;5.47;;;2.45;;
69779;SDS011;57052;55.602;38.096;2023-04-30T11:22:26;4.40;;;1.90;;
69779;SDS011;57052;55.602;38.096;2023-04-30T11:25:00;3.47;;;1.55;;
69779;SDS011;57052;55.602;38.096;2023-04-30T11:27:30;6.95;;;1.92;;
69779;SDS011;57052;55.602;38.096;2023-04-30T11:30:00;3.78;;;1.80;;
69779;SDS011;57052;55.602;38.096;2023-04-30T11:32:31;4.25;;;1.63;;
69779;SDS011;57052;55.602;38.096;2023-04-30T11:34:59;6.40;;;2.10;;
69779;SDS011;57052;55.602;38.096;2023-04-30T11:37:30;3.42;;;1.80;;
69779;SDS011;57052;55.602;38.096;2023-04-30T11:40:01;4.07;;;1.80;;
69779;SDS011;57052;55.602;38.096;2023-04-30T11:42:30;6.32;;;2.22;;
69779;SDS011;57052;55.602;38.096;2023-04-30T11:45:08;4.78;;;2.30;;
69779;SDS011;57052;55.602;38.096;2023-04-30T11:47:45;3.97;;;2.13;;
69779;SDS011;57052;55.602;38.096;2023-04-30T11:50:17;4.68;;;2.40;;
69779;SDS011;57052;55.602;38.096;2023-04-30T11:52:50;5.75;;;2.78;;
69779;SDS011;57052;55.602;38.096;2023-04-30T11:55:17;5.88;;;2.70;;
69779;SDS011;57052;55.602;38.096;2023-04-30T11:57:46;6.40;;;2.38;;
69779;SDS011;57052;55.602;38.096;2023-04-30T12:00:15;6.07;;;2.30;;
69779;SDS011;57052;55.602;38.096;2023-04-30T12:02:43;4.55;;;2.22;;
69779;SDS011;57052;55.602;38.096;2023-04-30T12:05:16;7.15;;;2.00;;
69779;SDS011;57052;55.602;38.096;2023-04-30T12:07:46;4.78;;;2.05;;
69779;SDS011;57052;55.602;38.096;2023-04-30T12:10:12;5.28;;;1.90;;
69779;SDS011;57052;55.602;38.096;2023-04-30T12:12:38;6.22;;;2.45;;
69779;SDS011;57052;55.602;38.096;2023-04-30T12:15:17;4.22;;;2.03;;
69779;SDS011;57052;55.602;38.096;2023-04-30T12:17:50;4.63;;;2.53;;
69779;SDS011;57052;55.602;38.096;2023-04-30T12:20:18;5.50;;;2.60;;
69779;SDS011;57052;55.602;38.096;2023-04-30T12:22:46;4.20;;;2.10;;
69779;SDS011;57052;55.602;38.096;2023-04-30T12:25:17;5.07;;;2.30;;
69779;SDS011;57052;55.602;38.096;2023-04-30T12:27:44;6.30;;;2.22;;
69779;SDS011;57052;55.602;38.096;2023-04-30T12:30:11;6.00;;;2.35;;
69779;SDS011;57052;55.602;38.096;2023-04-30T12:32:38;5.28;;;2.80;;
69779;SDS011;57052;55.602;38.096;2023-04-30T12:35:04;5.72;;;2.50;;
69779;SDS011;57052;55.602;38.096;2023-04-30T12:37:30;4.13;;;2.20;;
69779;SDS011;57052;55.602;38.096;2023-04-30T12:39:56;6.18;;;2.58;;
69779;SDS011;57052;55.602;38.096;2023-04-30T12:42:22;6.40;;;2.70;;
69779;SDS011;57052;55.602;38.096;2023-04-30T12:44:49;4.45;;;2.67;;
69779;SDS011;57052;55.602;38.096;2023-04-30T12:47:15;5.03;;;2.38;;
69779;SDS011;57052;55.602;38.096;2023-04-30T12:49:41;5.97;;;2.58;;
69779;SDS011;57052;55.602;38.096;2023-04-30T12:52:11;5.00;;;2.40;;
69779;SDS011;57052;55.602;38.096;2023-04-30T12:54:38;6.10;;;2.20;;
69779;SDS011;57052;55.602;38.096;2023-04-30T12:57:07;5.03;;;2.42;;
69779;SDS011;57052;55.602;38.096;2023-04-30T12:59:39;3.85;;;2.30;;
69779;SDS011;57052;55.602;38.096;2023-04-30T13:02:24;5.75;;;2.40;;
69779;SDS011;57052;55.602;38.096;2023-04-30T13:04:52;4.03;;;2.40;;
69779;SDS011;57052;55.602;38.096;2023-04-30T13:07:18;3.72;;;2.20;;
69779;SDS011;57052;55.602;38.096;2023-04-30T13:09:45;4.20;;;2.25;;
69779;SDS011;57052;55.602;38.096;2023-04-30T13:12:10;5.53;;;2.40;;
69779;SDS011;57052;55.602;38.096;2023-04-30T13:14:36;4.13;;;2.47;;
69779;SDS011;57052;55.602;38.096;2023-04-30T13:17:03;4.07;;;2.17;;
69779;SDS011;57052;55.602;38.096;2023-04-30T13:19:31;4.13;;;2.50;;
69779;SDS011;57052;55.602;38.096;2023-04-30T13:21:57;3.38;;;2.10;;
69779;SDS011;57052;55.602;38.096;2023-04-30T13:24:23;9.70;;;2.75;;
69779;SDS011;57052;55.602;38.096;2023-04-30T13:26:49;5.15;;;2.35;;
69779;SDS011;57052;55.602;38.096;2023-04-30T13:29:15;5.18;;;2.55;;
69779;SDS011;57052;55.602;38.096;2023-04-30T13:31:41;4.07;;;2.30;;
69779;SDS011;57052;55.602;38.096;2023-04-30T13:34:09;6.68;;;2.35;;
69779;SDS011;57052;55.602;38.096;2023-04-30T13:36:35;4.68;;;2.45;;
69779;SDS011;57052;55.602;38.096;2023-04-30T13:39:01;9.60;;;2.70;;
69779;SDS011;57052;55.602;38.096;2023-04-30T13:41:27;5.80;;;2.65;;
69779;SDS011;57052;55.602;38.096;2023-04-30T13:43:53;4.82;;;2.55;;
69779;SDS011;57052;55.602;38.096;2023-04-30T13:46:19;5.25;;;2.72;;
69779;SDS011;57052;55.602;38.096;2023-04-30T13:48:44;10.38;;;2.72;;
69779;SDS011;57052;55.602;38.096;2023-04-30T13:51:14;6.03;;;2.63;;
69779;SDS011;57052;55.602;38.096;2023-04-30T13:53:39;5.85;;;2.35;;
69779;SDS011;57052;55.602;38.096;2023-04-30T13:56:05;5.03;;;2.63;;
69779;SDS011;57052;55.602;38.096;2023-04-30T13:58:31;7.47;;;2.72;;
69779;SDS011;57052;55.602;38.096;2023-04-30T14:00:57;6.25;;;2.88;;
69779;SDS011;57052;55.602;38.096;2023-04-30T14:03:24;8.85;;;3.35;;
69779;SDS011;57052;55.602;38.096;2023-04-30T14:05:50;7.60;;;3.35;;
69779;SDS011;57052;55.602;38.096;2023-04-30T14:08:15;9.10;;;3.58;;
69779;SDS011;57052;55.602;38.096;2023-04-30T14:10:41;11.75;;;3.42;;
69779;SDS011;57052;55.602;38.096;2023-04-30T14:13:07;6.88;;;3.70;;
69779;SDS011;57052;55.602;38.096;2023-04-30T14:15:33;8.98;;;3.22;;
69779;SDS011;57052;55.602;38.096;2023-04-30T14:17:59;4.97;;;3.15;;
69779;SDS011;57052;55.602;38.096;2023-04-30T14:20:25;6.18;;;3.40;;
69779;SDS011;57052;55.602;38.096;2023-04-30T14:22:51;8.35;;;4.07;;
69779;SDS011;57052;55.602;38.096;2023-04-30T14:25:17;6.82;;;4.18;;
69779;SDS011;57052;55.602;38.096;2023-04-30T14:27:43;6.93;;;3.92;;
69779;SDS011;57052;55.602;38.096;2023-04-30T14:30:09;11.32;;;4.07;;
69779;SDS011;57052;55.602;38.096;2023-04-30T14:32:35;7.90;;;4.00;;
69779;SDS011;57052;55.602;38.096;2023-04-30T14:35:01;7.70;;;4.15;;
69779;SDS011;57052;55.602;38.096;2023-04-30T14:37:30;9.05;;;4.65;;
69779;SDS011;57052;55.602;38.096;2023-04-30T14:39:56;7.55;;;4.40;;
69779;SDS011;57052;55.602;38.096;2023-04-30T14:42:22;12.57;;;4.78;;
69779;SDS011;57052;55.602;38.096;2023-04-30T14:44:48;10.18;;;5.47;;
69779;SDS011;57052;55.602;38.096;2023-04-30T14:47:14;10.43;;;5.20;;
69779;SDS011;57052;55.602;38.096;2023-04-30T14:49:40;13.38;;;4.85;;
69779;SDS011;57052;55.602;38.096;2023-04-30T14:52:05;9.30;;;5.00;;
69779;SDS011;57052;55.602;38.096;2023-04-30T14:54:31;10.15;;;4.95;;
69779;SDS011;57052;55.602;38.096;2023-04-30T14:56:56;11.00;;;4.00;;
69779;SDS011;57052;55.602;38.096;2023-04-30T14:59:22;9.00;;;4.60;;
69779;SDS011;57052;55.602;38.096;2023-04-30T15:01:48;8.50;;;3.88;;
69779;SDS011;57052;55.602;38.096;2023-04-30T15:04:13;9.68;;;4.40;;